createdAt,value
2019-01-24T00:03:54.175Z,58.46
2019-01-24T00:07:58.882Z,58.32
2019-01-24T00:12:03.582Z,58.34
2019-01-24T00:16:09.375Z,58.48
2019-01-24T00:20:16.049Z,58.60
2019-01-24T00:24:20.744Z,58.63
2019-01-24T00:28:25.447Z,58.67
2019-01-24T00:32:31.219Z,58.22
2019-01-24T00:36:35.913Z,58.42
2019-01-24T00:40:40.612Z,58.14
2019-01-24T00:44:45.322Z,58.07
2019-01-24T00:48:51.096Z,58.23
2019-01-24T00:52:55.794Z,58.08
2019-01-24T00:57:00.485Z,57.94
2019-01-24T01:01:05.176Z,58.04
2019-01-24T01:05:11.914Z,58.09
2019-01-24T01:09:16.612Z,57.73
2019-01-24T01:13:21.312Z,57.34
2019-01-24T01:17:26.010Z,57.58
2019-01-24T01:21:30.704Z,57.53
2019-01-24T01:25:35.406Z,57.32
2019-01-24T01:29:40.111Z,57.49
2019-01-24T01:33:44.814Z,57.66
2019-01-24T01:37:49.502Z,57.44
2019-01-24T01:41:54.204Z,57.45
2019-01-24T01:45:58.900Z,57.16
2019-01-24T01:50:06.198Z,57.27
2019-01-24T01:54:10.903Z,57.42
2019-01-24T01:58:15.589Z,57.35
2019-01-24T02:02:20.282Z,57.48
2019-01-24T02:06:24.977Z,57.68
2019-01-24T02:10:29.686Z,57.47
2019-01-24T02:14:34.391Z,57.11
2019-01-24T02:18:39.082Z,56.95
2019-01-24T02:22:43.786Z,57.27
2019-01-24T02:26:48.480Z,57.27
2019-01-24T02:30:53.178Z,57.79
2019-01-24T02:34:57.861Z,57.56
2019-01-24T02:39:02.562Z,57.79
2019-01-24T02:43:08.335Z,58.24
2019-01-24T02:47:13.035Z,58.26
2019-01-24T02:51:17.740Z,58.16
2019-01-24T02:55:22.431Z,58.32
2019-01-24T02:59:27.134Z,58.09
2019-01-24T03:03:31.826Z,58.04
2019-01-24T03:07:36.521Z,58.28
2019-01-24T03:11:41.216Z,58.14
2019-01-24T03:15:45.906Z,57.95
2019-01-24T03:19:50.601Z,58.02
2019-01-24T03:23:55.298Z,57.84
2019-01-24T03:28:00.003Z,57.98
2019-01-24T03:32:04.701Z,57.71
2019-01-24T03:36:09.397Z,57.85
2019-01-24T03:40:16.005Z,57.43
2019-01-24T03:44:20.705Z,57.57
2019-01-24T03:48:25.415Z,57.86
2019-01-24T03:52:30.108Z,58.35
2019-01-24T03:56:34.811Z,59.14
2019-01-24T04:00:39.513Z,57.36
2019-01-24T04:04:44.208Z,56.98
2019-01-24T04:08:48.909Z,57.35
2019-01-24T04:12:53.615Z,57.56
2019-01-24T04:16:58.307Z,57.26
2019-01-24T04:21:03.010Z,57.21
2019-01-24T04:25:08.253Z,56.93
2019-01-24T04:29:12.949Z,56.77
2019-01-24T04:33:17.638Z,56.73
2019-01-24T04:37:22.334Z,56.66
2019-01-24T04:41:28.203Z,56.31
2019-01-24T04:45:32.911Z,56.55
2019-01-24T04:49:37.614Z,56.95
2019-01-24T04:53:42.303Z,56.76
2019-01-24T04:57:47.076Z,56.94
2019-01-24T05:01:51.783Z,57.38
2019-01-24T05:05:56.483Z,57.52
2019-01-24T05:10:02.323Z,57.38
2019-01-24T05:14:07.144Z,57.66
2019-01-24T05:18:11.846Z,57.57
2019-01-24T05:22:16.548Z,57.54
2019-01-24T05:26:21.245Z,57.99
2019-01-24T05:30:26.315Z,58.24
2019-01-24T05:34:31.007Z,58.57
2019-01-24T05:38:35.704Z,58.57
2019-01-24T05:42:40.403Z,58.51
2019-01-24T05:46:45.107Z,58.37
2019-01-24T05:50:49.809Z,58.15
2019-01-24T05:54:54.502Z,58.10
2019-01-24T05:58:59.203Z,58.17
2019-01-24T06:03:04.668Z,58.38
2019-01-24T06:07:09.376Z,58.10
2019-01-24T06:11:14.069Z,58.08
2019-01-24T06:15:18.830Z,57.73
2019-01-24T06:19:23.539Z,57.50
2019-01-24T06:23:28.229Z,57.25
2019-01-24T06:27:33.999Z,57.06
2019-01-24T06:31:38.703Z,56.75
2019-01-24T06:35:48.695Z,56.81
2019-01-24T06:39:51.389Z,57.37
2019-01-24T06:43:56.089Z,57.67
2019-01-24T06:48:00.787Z,57.73
2019-01-24T06:52:05.492Z,57.07
2019-01-24T06:56:10.190Z,56.87
2019-01-24T07:00:17.029Z,56.90
2019-01-24T07:04:21.730Z,57.00
2019-01-24T07:08:26.425Z,56.95
2019-01-24T07:12:31.126Z,56.72
2019-01-24T07:16:36.787Z,56.46
2019-01-24T07:20:41.491Z,56.69
2019-01-24T07:24:46.190Z,56.65
2019-01-24T07:28:50.889Z,56.52
2019-01-24T07:32:55.586Z,56.74
2019-01-24T07:37:00.341Z,57.02
2019-01-24T07:41:05.051Z,58.28
2019-01-24T07:45:12.797Z,57.67
2019-01-24T07:49:17.490Z,57.13
2019-01-24T07:53:22.190Z,57.76
2019-01-24T07:57:28.523Z,57.24
2019-01-24T08:01:33.225Z,57.81
2019-01-24T08:05:38.014Z,57.44
2019-01-24T08:09:42.705Z,57.11
2019-01-24T08:13:47.418Z,56.57
2019-01-24T08:17:52.105Z,55.83
2019-01-24T08:21:57.870Z,55.88
2019-01-24T08:26:02.572Z,56.24
2019-01-24T08:30:10.533Z,56.08
2019-01-24T08:34:15.237Z,58.63
2019-01-24T08:38:19.941Z,56.02
2019-01-24T08:42:24.639Z,55.74
2019-01-24T08:46:29.353Z,55.05
2019-01-24T08:50:35.025Z,56.05
2019-01-24T08:54:39.734Z,55.84
2019-01-24T08:58:44.423Z,56.11
2019-01-24T09:02:49.657Z,54.90
2019-01-24T09:06:54.360Z,55.33
2019-01-24T09:10:59.056Z,55.29
2019-01-24T09:15:08.371Z,55.14
2019-01-24T09:19:13.058Z,55.49
2019-01-24T09:23:17.756Z,55.06
2019-01-24T09:27:22.470Z,54.98
2019-01-24T09:31:27.175Z,54.74
2019-01-24T09:35:31.864Z,54.73
2019-01-24T09:39:36.557Z,54.50
2019-01-24T09:43:41.249Z,54.44
2019-01-24T09:47:45.951Z,54.63
2019-01-24T09:51:50.661Z,54.54
2019-01-24T09:55:55.361Z,54.21
2019-01-24T10:00:00.047Z,54.12
2019-01-24T10:04:04.745Z,54.07
2019-01-24T10:08:09.444Z,53.80
2019-01-24T10:12:14.148Z,54.43
2019-01-24T10:16:18.846Z,54.46
2019-01-24T10:20:25.478Z,53.69
2019-01-24T10:24:30.178Z,54.31
2019-01-24T10:28:34.874Z,54.06
2019-01-24T10:32:39.569Z,53.82
2019-01-24T10:36:44.280Z,53.91
2019-01-24T10:40:48.967Z,53.55
2019-01-24T10:44:53.671Z,53.70
2019-01-24T10:48:58.372Z,53.13
2019-01-24T10:53:03.077Z,53.52
2019-01-24T10:57:07.776Z,53.08
2019-01-24T11:01:12.471Z,52.64
2019-01-24T11:05:18.906Z,52.41
2019-01-24T11:09:23.604Z,52.72
2019-01-24T11:13:28.304Z,51.81
2019-01-24T11:17:33.007Z,52.11
2019-01-24T11:21:37.695Z,51.58
2019-01-24T11:25:42.393Z,52.24
2019-01-24T11:29:47.091Z,52.50
2019-01-24T11:33:51.789Z,52.35
2019-01-24T11:37:56.493Z,52.19
2019-01-24T11:42:01.180Z,51.07
2019-01-24T11:46:07.218Z,51.02
2019-01-24T11:50:16.590Z,51.24
2019-01-24T11:54:21.295Z,50.66
2019-01-24T11:58:25.996Z,50.78
2019-01-24T12:02:30.695Z,50.94
2019-01-24T12:06:35.395Z,50.35
2019-01-24T12:10:40.161Z,50.55
2019-01-24T12:14:44.860Z,50.51
2019-01-24T12:18:49.556Z,50.53
2019-01-24T12:22:54.245Z,50.52
2019-01-24T12:26:58.937Z,50.57
2019-01-24T12:31:03.645Z,50.01
2019-01-24T12:35:09.681Z,49.86
2019-01-24T12:39:14.377Z,49.62
2019-01-24T12:43:19.061Z,49.77
2019-01-24T12:47:23.764Z,49.53
2019-01-24T12:51:28.469Z,49.75
2019-01-24T12:55:34.130Z,49.89
2019-01-24T12:59:38.825Z,50.34
2019-01-24T13:03:43.819Z,50.22
2019-01-24T13:07:48.517Z,50.03
2019-01-24T13:11:53.216Z,50.50
2019-01-24T13:15:57.918Z,50.17
2019-01-24T13:20:02.613Z,50.61
2019-01-24T13:24:07.306Z,50.44
2019-01-24T13:28:11.996Z,50.53
2019-01-24T13:32:16.708Z,50.32
2019-01-24T13:36:21.406Z,49.80
2019-01-24T13:40:28.801Z,49.91
2019-01-24T13:44:33.510Z,50.19
2019-01-24T13:48:38.206Z,50.63
2019-01-24T13:52:42.900Z,50.33
2019-01-24T13:56:47.597Z,50.45
2019-01-24T14:00:52.292Z,50.55
2019-01-24T14:04:56.983Z,50.55
2019-01-24T14:09:01.685Z,50.26
2019-01-24T14:13:06.383Z,49.92
2019-01-24T14:17:11.087Z,50.42
2019-01-24T14:21:15.786Z,50.75
2019-01-24T14:25:21.279Z,51.10
2019-01-24T14:29:25.982Z,50.88
2019-01-24T14:33:30.676Z,51.23
2019-01-24T14:37:39.798Z,51.24
2019-01-24T14:41:41.773Z,51.54
2019-01-24T14:45:46.457Z,51.34
2019-01-24T14:49:51.165Z,51.16
2019-01-24T14:53:55.863Z,51.30
2019-01-24T14:58:00.575Z,51.38
2019-01-24T15:02:05.331Z,51.22
2019-01-24T15:06:10.019Z,51.03
2019-01-24T15:10:15.459Z,50.80
2019-01-24T15:14:20.152Z,50.91
2019-01-24T15:18:24.852Z,50.63
2019-01-24T15:22:29.549Z,50.73
2019-01-24T15:26:35.084Z,50.95
2019-01-24T15:30:39.786Z,51.25
2019-01-24T15:34:44.478Z,51.41
2019-01-24T15:38:49.176Z,51.53
2019-01-24T15:42:53.896Z,51.55
2019-01-24T15:46:58.581Z,51.50
2019-01-24T15:51:03.284Z,51.54
2019-01-24T15:55:08.626Z,51.62
2019-01-24T15:59:13.318Z,51.63
2019-01-24T16:03:18.029Z,51.68
2019-01-24T16:07:22.727Z,51.77
2019-01-24T16:11:27.430Z,51.77
2019-01-24T16:15:34.272Z,51.52
2019-01-24T16:19:38.967Z,51.65
2019-01-24T16:23:43.667Z,51.63
2019-01-24T16:27:48.354Z,51.46
2019-01-24T16:31:53.053Z,51.70
2019-01-24T16:35:57.764Z,51.80
2019-01-24T16:40:02.467Z,51.85
2019-01-24T16:44:07.165Z,51.93
2019-01-24T16:48:11.883Z,54.21
2019-01-24T16:52:16.570Z,53.36
2019-01-24T16:56:21.269Z,52.84
2019-01-24T17:00:29.230Z,52.50
2019-01-24T17:04:33.921Z,52.45
2019-01-24T17:08:38.622Z,52.37
2019-01-24T17:12:43.311Z,52.35
2019-01-24T17:16:48.012Z,52.68
2019-01-24T17:20:52.708Z,52.41
2019-01-24T17:24:57.410Z,52.59
2019-01-24T17:29:02.283Z,52.66
2019-01-24T17:33:06.982Z,52.76
2019-01-24T17:37:11.670Z,52.91
2019-01-24T17:41:16.371Z,53.09
2019-01-24T17:45:21.073Z,53.11
2019-01-24T17:49:26.842Z,54.38
2019-01-24T17:53:31.551Z,54.45
2019-01-24T17:57:36.243Z,55.41
2019-01-24T18:01:40.942Z,55.33
2019-01-24T18:05:45.639Z,53.58
2019-01-24T18:09:50.341Z,53.05
2019-01-24T18:13:55.032Z,52.92
2019-01-24T18:17:59.733Z,53.01
2019-01-24T18:22:04.603Z,53.43
2019-01-24T18:26:09.305Z,53.08
2019-01-24T18:30:25.514Z,52.62
2019-01-24T18:34:30.198Z,53.11
2019-01-24T18:38:38.572Z,54.51
2019-01-24T18:42:41.308Z,52.97
2019-01-24T18:46:46.009Z,53.59
2019-01-24T18:50:50.772Z,52.97
2019-01-24T18:54:55.456Z,52.60
2019-01-24T18:59:00.162Z,52.76
2019-01-24T19:03:06.207Z,53.32
2019-01-24T19:07:10.901Z,52.68
2019-01-24T19:11:17.299Z,52.35
2019-01-24T19:15:23.432Z,52.35
2019-01-24T19:19:28.128Z,52.45
2019-01-24T19:23:32.830Z,52.69
2019-01-24T19:27:37.526Z,52.59
2019-01-24T19:31:42.224Z,52.58
2019-01-24T19:35:46.918Z,52.88
2019-01-24T19:39:51.616Z,52.82
2019-01-24T19:43:56.311Z,52.57
2019-01-24T19:48:01.005Z,52.58
2019-01-24T19:52:05.701Z,52.74
2019-01-24T19:56:10.387Z,52.83
2019-01-24T20:00:20.700Z,53.10
2019-01-24T20:04:25.394Z,53.22
2019-01-24T20:08:30.092Z,53.37
2019-01-24T20:12:34.796Z,53.75
2019-01-24T20:16:39.487Z,53.37
2019-01-24T20:20:44.185Z,53.16
2019-01-24T20:24:48.883Z,53.19
2019-01-24T20:28:53.588Z,53.01
2019-01-24T20:32:59.541Z,52.68
2019-01-24T20:37:04.233Z,52.73
2019-01-24T20:41:08.924Z,52.86
2019-01-24T20:45:13.789Z,52.77
2019-01-24T20:49:19.557Z,52.38
2019-01-24T20:53:24.258Z,52.88
2019-01-24T20:57:28.944Z,53.01
2019-01-24T21:01:33.653Z,52.98
2019-01-24T21:05:38.332Z,52.72
2019-01-24T21:09:43.028Z,52.39
2019-01-24T21:13:47.726Z,53.03
2019-01-24T21:17:52.488Z,52.49
2019-01-24T21:21:57.185Z,52.38
2019-01-24T21:26:01.885Z,52.11
2019-01-24T21:30:12.637Z,51.65
2019-01-24T21:34:17.338Z,51.19
2019-01-24T21:38:22.284Z,51.42
2019-01-24T21:42:26.978Z,51.53
2019-01-24T21:46:31.679Z,51.30
2019-01-24T21:50:36.378Z,51.36
2019-01-24T21:54:42.140Z,51.06
2019-01-24T21:58:46.828Z,50.92
2019-01-24T22:02:51.525Z,50.63
2019-01-24T22:06:56.288Z,50.61
2019-01-24T22:11:00.916Z,50.69
2019-01-24T22:15:09.003Z,50.69
2019-01-24T22:19:13.703Z,50.54
2019-01-24T22:23:18.399Z,50.50
2019-01-24T22:27:23.104Z,50.54
2019-01-24T22:31:27.799Z,50.43
2019-01-24T22:35:32.488Z,50.45
2019-01-24T22:39:37.184Z,50.62
2019-01-24T22:43:41.886Z,50.44
2019-01-24T22:47:46.652Z,50.24
2019-01-24T22:51:51.347Z,49.85
2019-01-24T22:55:56.038Z,50.17
2019-01-24T23:00:00.739Z,50.19
2019-01-24T23:04:07.278Z,50.21
2019-01-24T23:08:11.981Z,50.14
2019-01-24T23:12:16.669Z,50.28
2019-01-24T23:16:21.352Z,50.53
2019-01-24T23:20:26.053Z,50.37
2019-01-24T23:24:31.725Z,50.34
2019-01-24T23:28:36.417Z,49.80
2019-01-24T23:32:41.117Z,49.48
2019-01-24T23:36:45.812Z,49.49
2019-01-24T23:40:52.134Z,49.32
2019-01-24T23:44:56.830Z,49.36
2019-01-24T23:49:01.530Z,49.49
2019-01-24T23:53:06.234Z,49.73
2019-01-24T23:57:10.921Z,49.71
